createdAt,value
2022-10-24T00:00:37.917Z,88
2022-10-24T00:01:42.378Z,88
2022-10-24T00:02:46.506Z,88
2022-10-24T00:03:50.777Z,88
2022-10-24T00:04:54.858Z,88
2022-10-24T00:05:59.106Z,88
2022-10-24T00:07:03.610Z,87
2022-10-24T00:08:07.726Z,88
2022-10-24T00:09:11.810Z,88
2022-10-24T00:10:15.874Z,88
2022-10-24T00:11:20.083Z,87
2022-10-24T00:12:24.621Z,87
2022-10-24T00:13:28.766Z,87
2022-10-24T00:14:32.842Z,87
2022-10-24T00:15:36.902Z,87
2022-10-24T00:16:41.035Z,87
2022-10-24T00:17:45.111Z,87
2022-10-24T00:18:49.354Z,87
2022-10-24T00:19:53.846Z,87
2022-10-24T00:20:58.286Z,87
2022-10-24T00:22:02.975Z,87
2022-10-24T00:23:07.562Z,87
2022-10-24T00:24:12.174Z,87
2022-10-24T00:25:16.266Z,87
2022-10-24T00:26:20.361Z,87
2022-10-24T00:27:24.535Z,87
2022-10-24T00:28:29.140Z,87
2022-10-24T00:29:33.750Z,87
2022-10-24T00:30:38.286Z,87
2022-10-24T00:31:42.347Z,87
2022-10-24T00:32:46.706Z,87
2022-10-24T00:33:50.583Z,87
2022-10-24T00:34:54.732Z,87
2022-10-24T00:35:59.058Z,87
2022-10-24T00:37:03.154Z,87
2022-10-24T00:38:07.246Z,87
2022-10-24T00:39:11.422Z,87
2022-10-24T00:40:15.449Z,87
2022-10-24T00:41:19.538Z,87
2022-10-24T00:42:29.802Z,87
2022-10-24T00:43:33.882Z,87
2022-10-24T00:44:38.067Z,87
2022-10-24T00:45:42.586Z,87
2022-10-24T00:46:51.851Z,87
2022-10-24T00:47:55.978Z,87
2022-10-24T00:49:00.290Z,87
2022-10-24T00:50:04.362Z,87
2022-10-24T00:51:13.642Z,87
2022-10-24T00:52:28.570Z,87
2022-10-24T00:53:32.698Z,87
2022-10-24T00:54:36.806Z,87
2022-10-24T00:55:40.898Z,88
2022-10-24T00:56:45.543Z,88
2022-10-24T00:57:57.609Z,88
2022-10-24T00:59:02.177Z,88
2022-10-24T01:00:06.209Z,88
2022-10-24T01:01:10.962Z,88
2022-10-24T01:03:19.014Z,88
2022-10-24T01:04:23.180Z,88
2022-10-24T01:05:27.270Z,87
2022-10-24T01:06:34.490Z,87
2022-10-24T01:07:49.343Z,87
2022-10-24T01:08:58.957Z,87
2022-10-24T01:10:08.488Z,87
2022-10-24T01:11:23.363Z,88
2022-10-24T01:12:32.626Z,88
2022-10-24T01:13:45.334Z,87
2022-10-24T01:14:57.406Z,87
2022-10-24T01:16:06.618Z,88
2022-10-24T01:17:15.844Z,88
2022-10-24T01:18:25.049Z,88
2022-10-24T01:19:32.206Z,88
2022-10-24T01:20:39.373Z,88
2022-10-24T01:21:48.817Z,88
2022-10-24T01:22:53.255Z,88
2022-10-24T01:24:07.849Z,87
2022-10-24T01:25:20.162Z,87
2022-10-24T01:26:32.330Z,87
2022-10-24T01:27:44.482Z,88
2022-10-24T01:28:56.423Z,88
2022-10-24T01:30:05.886Z,88
2022-10-24T01:31:13.109Z,88
2022-10-24T01:32:17.238Z,89
2022-10-24T01:33:26.957Z,89
2022-10-24T01:34:31.050Z,88
2022-10-24T01:35:43.339Z,88
2022-10-24T01:36:50.578Z,88
2022-10-24T01:37:57.442Z,88
2022-10-24T01:39:04.672Z,88
2022-10-24T01:40:08.685Z,88
2022-10-24T01:41:18.925Z,88
2022-10-24T01:42:23.059Z,88
2022-10-24T01:43:27.166Z,88
2022-10-24T01:44:39.410Z,88
2022-10-24T01:45:43.499Z,88
2022-10-24T01:46:47.614Z,88
2022-10-24T01:47:51.846Z,88
2022-10-24T01:48:56.346Z,88
2022-10-24T01:50:00.653Z,87
2022-10-24T01:51:04.901Z,87
2022-10-24T01:52:09.423Z,87
2022-10-24T01:53:13.462Z,87
2022-10-24T01:54:17.535Z,87
2022-10-24T01:55:21.666Z,87
2022-10-24T01:56:25.810Z,87
2022-10-24T01:57:29.885Z,87
2022-10-24T01:58:34.045Z,87
2022-10-24T01:59:38.110Z,87
2022-10-24T02:01:46.409Z,86
2022-10-24T02:02:50.349Z,86
2022-10-24T02:03:59.873Z,86
2022-10-24T02:05:03.966Z,86
2022-10-24T02:06:11.197Z,86
2022-10-24T02:07:20.925Z,86
2022-10-24T02:08:24.977Z,86
2022-10-24T02:09:29.095Z,86
2022-10-24T02:10:33.166Z,86
2022-10-24T02:11:40.358Z,86
2022-10-24T02:12:44.583Z,86
2022-10-24T02:13:48.521Z,86
2022-10-24T02:14:57.698Z,86
2022-10-24T02:16:02.141Z,86
2022-10-24T02:17:06.249Z,86
2022-10-24T02:18:10.318Z,86
2022-10-24T02:19:14.518Z,86
2022-10-24T02:20:18.637Z,86
2022-10-24T02:21:28.237Z,86
2022-10-24T02:22:32.382Z,86
2022-10-24T02:23:42.618Z,86
2022-10-24T02:24:57.402Z,86
2022-10-24T02:26:01.801Z,86
2022-10-24T02:27:06.025Z,86
2022-10-24T02:28:13.171Z,86
2022-10-24T02:29:17.832Z,86
2022-10-24T02:30:27.537Z,86
2022-10-24T02:31:32.160Z,86
2022-10-24T02:32:36.741Z,86
2022-10-24T02:33:40.788Z,86
2022-10-24T02:34:44.821Z,86
2022-10-24T02:35:48.942Z,86
2022-10-24T02:36:53.157Z,86
2022-10-24T02:37:57.190Z,86
2022-10-24T02:39:11.761Z,86
2022-10-24T02:40:15.850Z,86
2022-10-24T02:41:19.981Z,86
2022-10-24T02:42:24.140Z,86
2022-10-24T02:43:28.242Z,86
2022-10-24T02:44:32.365Z,86
2022-10-24T02:45:36.805Z,86
2022-10-24T02:46:41.043Z,86
2022-10-24T02:47:45.335Z,86
2022-10-24T02:48:49.193Z,86
2022-10-24T02:49:53.381Z,86
2022-10-24T02:50:57.858Z,86
2022-10-24T02:52:02.423Z,86
2022-10-24T02:53:06.421Z,86
2022-10-24T02:54:10.645Z,86
2022-10-24T02:55:14.672Z,86
2022-10-24T02:56:18.808Z,87
2022-10-24T02:57:22.921Z,86
2022-10-24T02:58:27.004Z,87
2022-10-24T02:59:31.115Z,87
2022-10-24T03:00:35.277Z,87
2022-10-24T03:01:39.404Z,87
2022-10-24T03:02:43.667Z,87
2022-10-24T03:03:47.582Z,87
2022-10-24T03:04:51.694Z,87
2022-10-24T03:05:56.274Z,87
2022-10-24T03:07:00.570Z,87
2022-10-24T03:08:04.679Z,87
2022-10-24T03:09:08.881Z,87
2022-10-24T03:10:12.943Z,87
2022-10-24T03:11:17.035Z,87
2022-10-24T03:12:21.186Z,87
2022-10-24T03:13:25.294Z,88
2022-10-24T03:14:29.331Z,88
2022-10-24T03:15:33.466Z,88
2022-10-24T03:16:37.615Z,89
2022-10-24T03:17:41.808Z,88
2022-10-24T03:18:45.806Z,88
2022-10-24T03:19:49.775Z,88
2022-10-24T03:20:54.010Z,88
2022-10-24T03:21:58.550Z,88
2022-10-24T03:23:02.901Z,88
2022-10-24T03:25:11.140Z,88
2022-10-24T03:26:15.250Z,88
2022-10-24T03:27:19.419Z,88
2022-10-24T03:28:24.059Z,88
2022-10-24T03:29:28.122Z,88
2022-10-24T03:30:32.318Z,88
2022-10-24T03:31:36.826Z,88
2022-10-24T03:32:40.829Z,88
2022-10-24T03:33:45.062Z,89
2022-10-24T03:34:49.095Z,88
2022-10-24T03:35:53.174Z,89
2022-10-24T03:36:57.287Z,89
2022-10-24T03:38:01.659Z,89
2022-10-24T03:39:05.814Z,88
2022-10-24T03:40:09.818Z,88
2022-10-24T03:41:13.970Z,89
2022-10-24T03:42:18.139Z,89
2022-10-24T03:43:22.130Z,89
2022-10-24T03:44:26.322Z,88
2022-10-24T03:45:30.854Z,89
2022-10-24T03:46:34.899Z,89
2022-10-24T03:47:39.047Z,89
2022-10-24T03:48:43.258Z,89
2022-10-24T03:49:47.271Z,89
2022-10-24T03:50:51.430Z,89
2022-10-24T03:51:55.466Z,89
2022-10-24T03:52:59.494Z,88
2022-10-24T03:54:03.998Z,89
2022-10-24T03:55:08.035Z,89
2022-10-24T03:56:12.310Z,89
2022-10-24T03:57:16.779Z,88
2022-10-24T03:58:20.945Z,88
2022-10-24T03:59:24.902Z,87
2022-10-24T04:00:29.030Z,87
2022-10-24T04:01:33.275Z,87
2022-10-24T04:02:38.046Z,87
2022-10-24T04:03:41.306Z,87
2022-10-24T04:04:45.423Z,87
2022-10-24T04:05:49.482Z,87
2022-10-24T04:06:53.718Z,87
2022-10-24T04:07:57.818Z,87
2022-10-24T04:09:02.138Z,88
2022-10-24T04:10:06.183Z,89
2022-10-24T04:11:10.290Z,89
2022-10-24T04:12:14.398Z,89
2022-10-24T04:13:18.584Z,89
2022-10-24T04:14:22.594Z,88
2022-10-24T04:15:26.761Z,88
2022-10-24T04:16:30.850Z,88
2022-10-24T04:17:35.026Z,88
2022-10-24T04:18:39.214Z,88
2022-10-24T04:19:43.615Z,88
2022-10-24T04:20:47.691Z,88
2022-10-24T04:21:51.859Z,87
2022-10-24T04:22:55.954Z,87
2022-10-24T04:24:00.104Z,87
2022-10-24T04:25:04.519Z,88
2022-10-24T04:26:09.079Z,88
2022-10-24T04:27:13.190Z,88
2022-10-24T04:28:17.743Z,88
2022-10-24T04:29:21.846Z,88
2022-10-24T04:30:25.968Z,88
2022-10-24T04:31:30.085Z,88
2022-10-24T04:32:34.187Z,88
2022-10-24T04:33:38.418Z,88
2022-10-24T04:34:42.854Z,88
2022-10-24T04:35:47.002Z,88
2022-10-24T04:36:51.130Z,88
2022-10-24T04:37:55.206Z,88
2022-10-24T04:40:03.806Z,88
2022-10-24T04:41:09.772Z,88
2022-10-24T04:42:12.554Z,88
2022-10-24T04:43:16.699Z,88
2022-10-24T04:44:20.755Z,88
2022-10-24T04:45:24.907Z,88
2022-10-24T04:46:28.970Z,88
2022-10-24T04:47:33.119Z,88
2022-10-24T04:48:37.253Z,88
2022-10-24T04:49:41.331Z,88
2022-10-24T04:50:45.521Z,88
2022-10-24T04:51:50.010Z,88
2022-10-24T04:52:54.143Z,88
2022-10-24T04:54:03.231Z,88
2022-10-24T04:55:21.097Z,88
2022-10-24T04:56:25.606Z,88
2022-10-24T04:57:29.786Z,88
2022-10-24T04:58:33.942Z,88
2022-10-24T04:59:38.047Z,88
2022-10-24T05:00:42.611Z,88
2022-10-24T05:01:46.959Z,88
2022-10-24T05:02:53.008Z,88
2022-10-24T05:03:55.538Z,88
2022-10-24T05:04:59.602Z,88
2022-10-24T05:06:04.037Z,88
2022-10-24T05:07:08.434Z,88
2022-10-24T05:08:12.589Z,88
2022-10-24T05:09:16.681Z,88
2022-10-24T05:10:20.810Z,88
2022-10-24T05:11:24.963Z,88
2022-10-24T05:12:29.003Z,88
2022-10-24T05:13:35.790Z,88
2022-10-24T05:14:37.362Z,88
2022-10-24T05:15:41.387Z,88
2022-10-24T05:16:45.515Z,88
2022-10-24T05:17:49.594Z,88
2022-10-24T05:18:53.697Z,88
2022-10-24T05:19:57.822Z,88
2022-10-24T05:21:02.199Z,88
2022-10-24T05:22:07.292Z,88
2022-10-24T05:23:10.306Z,88
2022-10-24T05:24:14.483Z,88
2022-10-24T05:25:18.571Z,88
2022-10-24T05:26:22.634Z,88
2022-10-24T05:27:26.906Z,88
2022-10-24T05:28:31.335Z,88
2022-10-24T05:29:35.965Z,88
2022-10-24T05:30:39.577Z,88
2022-10-24T05:31:46.730Z,88
2022-10-24T05:32:50.974Z,88
2022-10-24T05:33:55.167Z,88
2022-10-24T05:34:59.746Z,88
2022-10-24T05:36:04.099Z,88
2022-10-24T05:37:08.642Z,88
2022-10-24T05:38:13.267Z,88
2022-10-24T05:39:17.786Z,88
2022-10-24T05:40:22.040Z,88
2022-10-24T05:41:26.490Z,88
2022-10-24T05:42:30.631Z,89
2022-10-24T05:43:34.886Z,88
2022-10-24T05:44:39.420Z,89
2022-10-24T05:45:44.672Z,89
2022-10-24T05:46:48.815Z,89
2022-10-24T05:47:53.310Z,89
2022-10-24T05:48:57.394Z,89
2022-10-24T05:50:01.908Z,89
2022-10-24T05:51:06.378Z,89
2022-10-24T05:52:10.507Z,89
2022-10-24T05:53:15.110Z,89
2022-10-24T05:54:19.118Z,89
2022-10-24T05:55:23.451Z,89
2022-10-24T05:56:27.966Z,89
2022-10-24T05:57:32.098Z,89
2022-10-24T05:58:39.227Z,89
2022-10-24T05:59:43.382Z,89
2022-10-24T06:00:51.186Z,89
2022-10-24T06:01:52.466Z,89
2022-10-24T06:02:56.780Z,89
2022-10-24T06:04:00.950Z,89
2022-10-24T06:05:05.226Z,89
2022-10-24T06:06:09.850Z,89
2022-10-24T06:07:14.541Z,89
2022-10-24T06:08:19.133Z,88
2022-10-24T06:09:23.658Z,88
2022-10-24T06:10:27.844Z,89
2022-10-24T06:11:32.374Z,89
2022-10-24T06:12:36.667Z,88
2022-10-24T06:13:41.210Z,89
2022-10-24T06:14:45.726Z,89
2022-10-24T06:15:50.013Z,89
2022-10-24T06:16:54.487Z,89
2022-10-24T06:17:58.630Z,89
2022-10-24T06:19:03.046Z,88
2022-10-24T06:20:07.657Z,88
2022-10-24T06:21:12.190Z,89
2022-10-24T06:22:16.322Z,88
2022-10-24T06:23:20.459Z,89
2022-10-24T06:24:25.158Z,89
2022-10-24T06:25:29.823Z,89
2022-10-24T06:26:34.311Z,89
2022-10-24T06:27:38.961Z,89
2022-10-24T06:28:43.641Z,89
2022-10-24T06:29:48.089Z,89
2022-10-24T06:30:52.189Z,89
2022-10-24T06:31:56.437Z,89
2022-10-24T06:33:01.005Z,89
2022-10-24T06:34:05.354Z,89
2022-10-24T06:35:09.925Z,89
2022-10-24T06:36:14.636Z,89
2022-10-24T06:37:19.257Z,89
2022-10-24T06:38:23.701Z,89
2022-10-24T06:39:28.001Z,89
2022-10-24T06:40:32.503Z,89
2022-10-24T06:41:39.769Z,89
2022-10-24T06:42:44.548Z,89
2022-10-24T06:43:48.952Z,89
2022-10-24T06:44:53.594Z,89
2022-10-24T06:45:58.154Z,89
2022-10-24T06:47:02.350Z,89
2022-10-24T06:48:06.738Z,89
2022-10-24T06:49:11.278Z,89
2022-10-24T06:50:15.931Z,89
2022-10-24T06:51:20.491Z,89
2022-10-24T06:52:25.075Z,89
2022-10-24T06:53:29.310Z,89
2022-10-24T06:54:33.766Z,89
2022-10-24T06:55:38.311Z,88
2022-10-24T06:56:43.076Z,89
2022-10-24T06:57:48.057Z,89
2022-10-24T06:58:52.141Z,89
2022-10-24T06:59:56.687Z,88
2022-10-24T07:01:01.160Z,89
2022-10-24T07:02:07.970Z,88
2022-10-24T07:03:12.772Z,89
2022-10-24T07:04:17.152Z,89
2022-10-24T07:05:21.791Z,89
2022-10-24T07:06:26.377Z,89
2022-10-24T07:07:30.519Z,88
2022-10-24T07:08:35.003Z,88
2022-10-24T07:09:39.680Z,88
2022-10-24T07:10:44.684Z,88
2022-10-24T07:11:48.961Z,88
2022-10-24T07:12:53.186Z,87
2022-10-24T07:13:59.637Z,88
2022-10-24T07:15:02.726Z,87
2022-10-24T07:16:07.189Z,87
2022-10-24T07:17:11.729Z,87
2022-10-24T07:18:16.285Z,87
2022-10-24T07:19:20.457Z,87
2022-10-24T07:20:25.263Z,86
2022-10-24T07:21:29.734Z,87
2022-10-24T07:22:34.261Z,86
2022-10-24T07:23:38.906Z,86
2022-10-24T07:24:43.766Z,86
2022-10-24T07:25:48.277Z,86
2022-10-24T07:26:52.860Z,87
2022-10-24T07:27:57.294Z,86
2022-10-24T07:30:06.512Z,86
2022-10-24T07:31:11.140Z,87
2022-10-24T07:32:18.471Z,87
2022-10-24T07:33:22.885Z,86
2022-10-24T07:34:27.151Z,86
2022-10-24T07:35:31.841Z,87
2022-10-24T07:36:40.016Z,87
2022-10-24T07:37:40.437Z,87
2022-10-24T07:38:45.136Z,87
2022-10-24T07:39:49.449Z,87
2022-10-24T07:40:54.104Z,87
2022-10-24T07:41:58.688Z,87
2022-10-24T07:43:03.167Z,87
2022-10-24T07:44:07.436Z,88
2022-10-24T07:45:11.976Z,87
2022-10-24T07:46:16.573Z,88
2022-10-24T07:47:21.128Z,88
2022-10-24T07:48:25.560Z,88
2022-10-24T07:49:31.497Z,87
2022-10-24T07:50:34.432Z,87
2022-10-24T07:51:44.301Z,87
2022-10-24T07:52:48.936Z,87
2022-10-24T07:53:53.233Z,88
2022-10-24T07:54:57.800Z,87
2022-10-24T07:56:02.045Z,87
2022-10-24T07:57:09.697Z,87
2022-10-24T07:58:14.271Z,88
2022-10-24T07:59:37.494Z,87
2022-10-24T08:00:23.007Z,87
2022-10-24T08:01:27.762Z,87
2022-10-24T08:02:32.457Z,87
2022-10-24T08:03:36.973Z,87
2022-10-24T08:04:42.336Z,87
2022-10-24T08:05:46.665Z,87
2022-10-24T08:06:51.017Z,87
2022-10-24T08:07:55.818Z,87
2022-10-24T08:08:59.757Z,87
2022-10-24T08:10:04.207Z,87
2022-10-24T08:11:08.525Z,88
2022-10-24T08:12:18.402Z,88
2022-10-24T08:13:23.008Z,87
2022-10-24T08:14:27.570Z,87
2022-10-24T08:15:31.896Z,87
2022-10-24T08:16:36.702Z,87
2022-10-24T08:17:40.973Z,87
2022-10-24T08:18:45.426Z,87
2022-10-24T08:19:49.918Z,87
2022-10-24T08:20:54.562Z,87
2022-10-24T08:21:59.234Z,87
2022-10-24T08:23:03.979Z,87
2022-10-24T08:24:08.383Z,87
2022-10-24T08:25:12.911Z,87
2022-10-24T08:26:17.183Z,87
2022-10-24T08:27:21.606Z,87
2022-10-24T08:28:26.516Z,86
2022-10-24T08:29:31.313Z,87
2022-10-24T08:30:36.463Z,87
2022-10-24T08:31:41.133Z,87
2022-10-24T08:32:45.856Z,87
2022-10-24T08:33:50.243Z,87
2022-10-24T08:34:54.902Z,87
2022-10-24T08:35:59.379Z,87
2022-10-24T08:37:03.493Z,87
2022-10-24T08:38:07.961Z,87
2022-10-24T08:39:12.316Z,87
2022-10-24T08:40:16.829Z,87
2022-10-24T08:41:20.888Z,87
2022-10-24T08:42:30.652Z,87
2022-10-24T08:43:35.322Z,87
2022-10-24T08:44:39.917Z,87
2022-10-24T08:45:44.425Z,87
2022-10-24T08:46:57.166Z,87
2022-10-24T08:48:06.806Z,87
2022-10-24T08:49:11.774Z,87
2022-10-24T08:50:16.052Z,86
2022-10-24T08:51:25.860Z,86
2022-10-24T08:52:30.319Z,86
2022-10-24T08:53:45.140Z,86
2022-10-24T08:54:49.625Z,86
2022-10-24T08:55:54.324Z,86
2022-10-24T08:56:58.768Z,86
2022-10-24T08:58:02.969Z,85
2022-10-24T08:59:07.079Z,86
2022-10-24T09:00:11.200Z,86
2022-10-24T09:01:24.128Z,86
2022-10-24T09:02:33.890Z,86
2022-10-24T09:03:58.127Z,86
2022-10-24T09:04:42.275Z,86
2022-10-24T09:05:46.898Z,86
2022-10-24T09:06:51.388Z,86
2022-10-24T09:07:56.075Z,86
2022-10-24T09:09:00.477Z,86
2022-10-24T09:10:04.782Z,86
2022-10-24T09:11:15.148Z,86
2022-10-24T09:12:27.707Z,86
2022-10-24T09:13:32.191Z,86
2022-10-24T09:14:36.815Z,86
2022-10-24T09:15:41.343Z,86
2022-10-24T09:16:45.883Z,86
2022-10-24T09:17:53.127Z,86
2022-10-24T09:18:57.644Z,86
2022-10-24T09:20:02.376Z,86
2022-10-24T09:21:16.971Z,86
2022-10-24T09:22:21.616Z,86
2022-10-24T09:23:26.091Z,86
2022-10-24T09:24:30.295Z,85
2022-10-24T09:25:39.980Z,85
2022-10-24T09:26:44.688Z,85
2022-10-24T09:27:49.540Z,86
2022-10-24T09:28:53.788Z,85
2022-10-24T09:29:58.361Z,85
2022-10-24T09:31:02.837Z,85
2022-10-24T09:32:17.776Z,85
2022-10-24T09:33:22.331Z,85
2022-10-24T09:34:31.955Z,85
2022-10-24T09:35:36.436Z,85
2022-10-24T09:36:41.200Z,85
2022-10-24T09:37:47.281Z,85
2022-10-24T09:38:53.444Z,85
2022-10-24T09:39:57.887Z,85
2022-10-24T09:41:08.863Z,85
2022-10-24T09:42:21.475Z,85
2022-10-24T09:43:25.877Z,85
2022-10-24T09:44:36.126Z,85
2022-10-24T09:45:40.752Z,85
2022-10-24T09:46:51.471Z,85
2022-10-24T09:47:56.031Z,85
2022-10-24T09:49:05.479Z,85
2022-10-24T09:50:14.795Z,85
2022-10-24T09:51:22.443Z,85
2022-10-24T09:52:29.491Z,85
2022-10-24T09:53:34.267Z,85
2022-10-24T09:54:38.730Z,85
2022-10-24T09:55:43.332Z,85
2022-10-24T09:56:49.905Z,84
2022-10-24T09:57:54.625Z,84
2022-10-24T09:58:59.391Z,84
2022-10-24T10:00:14.079Z,85
2022-10-24T10:01:21.314Z,84
2022-10-24T10:02:25.835Z,84
2022-10-24T10:03:29.919Z,84
2022-10-24T10:04:34.487Z,84
2022-10-24T10:05:38.862Z,84
2022-10-24T10:06:43.147Z,84
2022-10-24T10:07:50.128Z,84
2022-10-24T10:08:54.224Z,84
2022-10-24T10:09:58.303Z,84
2022-10-24T10:11:02.417Z,84
2022-10-24T10:12:09.952Z,83
2022-10-24T10:13:24.394Z,83
2022-10-24T10:14:28.516Z,83
2022-10-24T10:15:33.239Z,83
2022-10-24T10:16:37.908Z,82
2022-10-24T10:17:42.363Z,83
2022-10-24T10:18:49.322Z,83
2022-10-24T10:19:53.634Z,83
2022-10-24T10:20:58.256Z,82
2022-10-24T10:22:10.376Z,83
2022-10-24T10:23:22.588Z,82
2022-10-24T10:24:29.800Z,82
2022-10-24T10:25:34.495Z,82
2022-10-24T10:26:39.067Z,82
2022-10-24T10:27:43.977Z,82
2022-10-24T10:28:48.163Z,82
2022-10-24T10:30:00.903Z,82
2022-10-24T10:31:08.084Z,82
2022-10-24T10:32:12.611Z,81
2022-10-24T10:33:24.868Z,81
2022-10-24T10:34:36.999Z,81
2022-10-24T10:35:41.159Z,80
2022-10-24T10:36:53.488Z,80
2022-10-24T10:38:06.186Z,80
2022-10-24T10:39:15.886Z,80
2022-10-24T10:40:25.542Z,81
2022-10-24T10:41:35.167Z,81
2022-10-24T10:42:45.248Z,79
2022-10-24T10:43:54.888Z,79
2022-10-24T10:45:09.411Z,79
2022-10-24T10:46:16.495Z,80
2022-10-24T10:47:31.176Z,79
2022-10-24T10:48:43.599Z,78
2022-10-24T10:49:53.050Z,78
2022-10-24T10:50:57.563Z,78
2022-10-24T10:52:10.007Z,78
2022-10-24T10:53:19.710Z,78
2022-10-24T10:54:31.922Z,78
2022-10-24T10:55:41.630Z,78
2022-10-24T10:56:48.779Z,77
2022-10-24T10:57:53.379Z,76
2022-10-24T10:59:02.940Z,76
2022-10-24T11:00:10.066Z,76
2022-10-24T11:01:22.598Z,77
2022-10-24T11:02:30.087Z,77
2022-10-24T11:03:39.327Z,78
2022-10-24T11:04:46.323Z,77
2022-10-24T11:05:58.642Z,77
2022-10-24T11:07:08.386Z,77
2022-10-24T11:08:17.255Z,78
2022-10-24T11:09:28.275Z,78
2022-10-24T11:10:37.506Z,78
2022-10-24T11:11:42.028Z,78
2022-10-24T11:12:54.164Z,77
2022-10-24T11:13:58.854Z,76
2022-10-24T11:15:13.558Z,76
2022-10-24T11:16:17.661Z,76
2022-10-24T11:17:27.435Z,76
2022-10-24T11:18:42.109Z,76
2022-10-24T11:19:46.603Z,76
2022-10-24T11:20:50.948Z,76
2022-10-24T11:22:03.960Z,77
2022-10-24T11:23:08.164Z,76
2022-10-24T11:24:18.752Z,76
2022-10-24T11:25:23.153Z,77
2022-10-24T11:26:32.781Z,78
2022-10-24T11:27:42.654Z,78
2022-10-24T11:28:52.231Z,78
2022-10-24T11:30:02.252Z,79
2022-10-24T11:31:14.574Z,79
2022-10-24T11:32:24.398Z,79
2022-10-24T11:33:39.137Z,79
2022-10-24T11:34:43.728Z,79
2022-10-24T11:35:48.351Z,79
2022-10-24T11:36:57.716Z,79
2022-10-24T11:38:07.430Z,79
2022-10-24T11:39:14.732Z,79
2022-10-24T11:40:22.130Z,79
2022-10-24T11:41:26.699Z,79
2022-10-24T11:42:34.257Z,79
2022-10-24T11:43:46.412Z,79
2022-10-24T11:44:51.049Z,80
2022-10-24T11:46:00.513Z,80
2022-10-24T11:47:12.936Z,79
2022-10-24T11:48:25.608Z,79
2022-10-24T11:49:32.785Z,79
2022-10-24T11:50:37.505Z,79
2022-10-24T11:51:44.569Z,80
2022-10-24T11:52:54.122Z,80
2022-10-24T11:54:08.832Z,79
2022-10-24T11:55:13.133Z,79
2022-10-24T11:56:24.891Z,79
2022-10-24T11:57:34.977Z,78
2022-10-24T11:58:39.477Z,78
2022-10-24T11:59:43.592Z,78
2022-10-24T12:00:48.289Z,78
2022-10-24T12:01:52.207Z,77
2022-10-24T12:02:56.493Z,77
2022-10-24T12:04:06.128Z,76
2022-10-24T12:05:19.568Z,76
2022-10-24T12:06:28.122Z,76
2022-10-24T12:07:40.671Z,77
2022-10-24T12:08:55.504Z,76
2022-10-24T12:10:02.977Z,77
2022-10-24T12:11:17.548Z,77
2022-10-24T12:12:24.853Z,77
2022-10-24T12:13:39.500Z,76
2022-10-24T12:14:51.680Z,76
2022-10-24T12:15:59.204Z,76
2022-10-24T12:17:14.148Z,77
2022-10-24T12:18:23.824Z,77
2022-10-24T12:19:28.304Z,77
2022-10-24T12:20:32.526Z,77
2022-10-24T12:21:36.715Z,77
2022-10-24T12:22:41.324Z,77
2022-10-24T12:23:45.993Z,77
2022-10-24T12:24:53.245Z,78
2022-10-24T12:26:02.804Z,78
2022-10-24T12:27:12.277Z,79
2022-10-24T12:28:24.625Z,79
2022-10-24T12:29:29.512Z,79
2022-10-24T12:30:34.000Z,79
2022-10-24T12:31:38.309Z,79
2022-10-24T12:32:42.978Z,80
2022-10-24T12:33:53.544Z,80
2022-10-24T12:36:23.117Z,80
2022-10-24T12:37:27.609Z,80
2022-10-24T12:38:31.852Z,80
2022-10-24T12:39:36.819Z,80
2022-10-24T12:40:44.196Z,81
2022-10-24T12:41:51.456Z,81
2022-10-24T12:42:55.963Z,81
2022-10-24T12:44:00.208Z,81
2022-10-24T12:45:15.024Z,81
2022-10-24T12:46:24.772Z,81
2022-10-24T12:47:29.373Z,82
2022-10-24T12:48:38.786Z,82
2022-10-24T12:49:53.557Z,82
2022-10-24T12:50:57.904Z,81
2022-10-24T12:52:10.669Z,81
2022-10-24T12:53:25.480Z,81
2022-10-24T12:54:32.668Z,81
2022-10-24T12:55:42.777Z,80
2022-10-24T12:56:47.037Z,80
2022-10-24T12:57:51.104Z,80
2022-10-24T12:58:55.281Z,81
2022-10-24T12:59:59.744Z,81
2022-10-24T13:01:04.360Z,81
2022-10-24T13:02:16.776Z,81
2022-10-24T13:03:21.121Z,81
2022-10-24T13:04:30.939Z,81
2022-10-24T13:05:42.987Z,80
2022-10-24T13:06:57.844Z,81
2022-10-24T13:08:09.996Z,80
2022-10-24T13:09:27.778Z,81
2022-10-24T13:10:42.711Z,81
2022-10-24T13:11:54.349Z,80
2022-10-24T13:13:05.135Z,81
2022-10-24T13:14:19.952Z,81
2022-10-24T13:15:32.120Z,81
2022-10-24T13:16:42.607Z,80
2022-10-24T13:17:51.942Z,80
2022-10-24T13:19:01.601Z,80
2022-10-24T13:20:16.451Z,80
2022-10-24T13:21:31.301Z,80
2022-10-24T13:22:35.887Z,81
2022-10-24T13:23:40.448Z,80
2022-10-24T13:24:45.902Z,80
2022-10-24T13:25:50.142Z,81
2022-10-24T13:26:57.340Z,81
2022-10-24T13:28:04.837Z,81
2022-10-24T13:29:19.557Z,80
2022-10-24T13:30:24.285Z,80
2022-10-24T13:31:29.521Z,81
2022-10-24T13:32:44.203Z,80
2022-10-24T13:33:48.357Z,81
2022-10-24T13:34:52.626Z,80
2022-10-24T13:35:57.274Z,80
2022-10-24T13:37:09.381Z,80
2022-10-24T13:38:13.906Z,80
2022-10-24T13:39:18.448Z,80
2022-10-24T13:40:23.133Z,80
2022-10-24T13:41:30.258Z,79
2022-10-24T13:42:40.470Z,80
2022-10-24T13:43:52.745Z,80
2022-10-24T13:44:57.417Z,80
2022-10-24T13:46:07.377Z,80
2022-10-24T13:47:12.582Z,80
2022-10-24T13:48:22.208Z,79
2022-10-24T13:49:27.059Z,79
2022-10-24T13:50:34.393Z,80
2022-10-24T13:51:41.451Z,80
2022-10-24T13:52:49.237Z,80
2022-10-24T13:53:52.884Z,80
2022-10-24T13:54:57.527Z,80
2022-10-24T13:56:01.686Z,80
2022-10-24T13:57:06.197Z,80
2022-10-24T13:58:20.797Z,80
2022-10-24T13:59:24.929Z,81
2022-10-24T14:00:35.218Z,80
2022-10-24T14:02:44.534Z,80
2022-10-24T14:03:48.526Z,80
2022-10-24T14:04:56.135Z,80
2022-10-24T14:05:57.801Z,79
2022-10-24T14:07:02.276Z,80
2022-10-24T14:08:06.404Z,80
2022-10-24T14:09:10.572Z,80
2022-10-24T14:10:14.877Z,80
2022-10-24T14:11:21.162Z,80
2022-10-24T14:12:24.089Z,80
2022-10-24T14:13:28.638Z,80
2022-10-24T14:14:32.893Z,80
2022-10-24T14:15:37.516Z,80
2022-10-24T14:16:41.981Z,80
2022-10-24T14:17:46.181Z,80
2022-10-24T14:18:58.841Z,80
2022-10-24T14:20:13.577Z,80
2022-10-24T14:21:23.757Z,80
2022-10-24T14:22:27.960Z,80
2022-10-24T14:23:37.389Z,80
2022-10-24T14:24:41.577Z,80
2022-10-24T14:25:46.142Z,80
2022-10-24T14:26:56.676Z,80
2022-10-24T14:28:00.870Z,80
2022-10-24T14:29:15.770Z,80
2022-10-24T14:30:26.430Z,80
2022-10-24T14:31:30.342Z,81
2022-10-24T14:32:37.625Z,81
2022-10-24T14:33:41.753Z,81
2022-10-24T14:34:45.976Z,81
2022-10-24T14:35:52.192Z,81
2022-10-24T14:36:55.081Z,81
2022-10-24T14:38:06.138Z,82
2022-10-24T14:39:07.128Z,82
2022-10-24T14:40:11.749Z,82
2022-10-24T14:41:15.829Z,82
2022-10-24T14:42:19.953Z,82
2022-10-24T14:43:24.059Z,82
2022-10-24T14:44:28.209Z,82
2022-10-24T14:45:32.286Z,82
2022-10-24T14:46:36.345Z,82
2022-10-24T14:47:40.528Z,82
2022-10-24T14:48:44.841Z,83
2022-10-24T14:49:49.173Z,83
2022-10-24T14:50:53.304Z,83
2022-10-24T14:52:05.546Z,83
2022-10-24T14:53:09.704Z,84
2022-10-24T14:54:19.194Z,84
2022-10-24T14:55:25.913Z,85
2022-10-24T14:56:30.110Z,84
2022-10-24T14:57:34.641Z,84
2022-10-24T14:58:38.841Z,85
2022-10-24T14:59:43.452Z,84
2022-10-24T15:00:47.568Z,85
2022-10-24T15:01:51.742Z,84
2022-10-24T15:02:56.452Z,84
2022-10-24T15:04:00.925Z,84
2022-10-24T15:05:07.765Z,84
2022-10-24T15:06:14.990Z,84
2022-10-24T15:07:22.216Z,84
2022-10-24T15:08:29.328Z,84
2022-10-24T15:09:36.713Z,84
2022-10-24T15:10:51.402Z,84
2022-10-24T15:12:06.074Z,84
2022-10-24T15:13:10.716Z,85
2022-10-24T15:14:15.528Z,85
2022-10-24T15:15:34.049Z,84
2022-10-24T15:16:34.046Z,84
2022-10-24T15:17:38.253Z,84
2022-10-24T15:18:42.690Z,84
2022-10-24T15:19:46.988Z,84
2022-10-24T15:20:51.470Z,85
2022-10-24T15:22:01.177Z,84
2022-10-24T15:23:05.337Z,84
2022-10-24T15:24:09.546Z,84
2022-10-24T15:25:24.445Z,84
2022-10-24T15:26:28.562Z,84
2022-10-24T15:27:37.705Z,84
2022-10-24T15:28:41.877Z,85
2022-10-24T15:29:49.084Z,84
2022-10-24T15:30:53.205Z,84
2022-10-24T15:31:57.312Z,85
2022-10-24T15:33:01.465Z,86
2022-10-24T15:34:05.924Z,85
2022-10-24T15:35:09.958Z,85
2022-10-24T15:36:14.082Z,86
2022-10-24T15:37:24.072Z,85
2022-10-24T15:38:28.404Z,85
2022-10-24T15:39:32.897Z,85
2022-10-24T15:40:37.537Z,85
2022-10-24T15:41:42.041Z,85
2022-10-24T15:42:46.453Z,85
2022-10-24T15:43:50.756Z,85
2022-10-24T15:44:55.388Z,85
2022-10-24T15:45:59.956Z,85
2022-10-24T15:47:04.080Z,85
2022-10-24T15:48:08.637Z,85
2022-10-24T15:49:13.169Z,85